Nearby METAR Reports

 

EKAH - Tirstrup (civ/Mi, Denmark
Distance from station: SSW 25km
Updated: 27/05/2024 23:50
Mostly cloudy
Mostly cloudy
 Wind from WSW
Wind: WSW 2 km/h
Temperature: 15°C
Dew Point: 11°C
Humidity: 77%
Barometer: 1016 hPa
Clouds: Mostly cloudy
Visibility: 10 km
Cloud details: Mostly cloudy 3048 m
2024/05/27 21:50 EKAH 272150Z AUTO 25001KT 9999 BKN100/// 15/11 Q1016
EKYT - Alborg, Denmark
Distance from station: NW 91km
Updated: 28/05/2024 00:04
Partly cloudy
Partly cloudy
 Wind from NNE
Wind: NNE 2 km/h
Temperature: 14°C
Dew Point: 13°C
Humidity: 94%
Barometer: 1016 hPa
Clouds: Partly cloudy
Visibility: 7 km
Cloud details: Few Clouds 671 m
Partly cloudy 945 m
2024/05/27 22:04 EKYT 272204Z AUTO 03001KT 7000 FEW022/// SCT031/// 14/13 Q1016
EKKA - Karup (dan-Afb), Denmark
Distance from station: W 107km
Updated: 27/05/2024 23:50
Mostly cloudy
Mostly cloudy
 Wind from SE
Wind: SE 2 km/h
Temperature: 12°C
Dew Point: 11°C
Humidity: 94%
Barometer: 1016 hPa
Clouds: Mostly cloudy
Visibility: 10 km
Cloud details: Mostly cloudy 6096 m
2024/05/27 21:50 EKKA 272150Z AUTO 14001KT 9999 BKN200/// 12/11 Q1016
 
EKOD - Odense/Beldringe, Denmark
Distance from station: SSW 116km
Updated: 27/05/2024 17:50
NOT Current
Few Clouds
Few Clouds
 Wind from SSW
Wind: SSW 13 km/h
Temperature: 20°C
Dew Point: 10°C
Humidity: 53%
Barometer: 1016 hPa
Clouds: Few Clouds
Visibility: 10 km
Cloud details: Few Clouds 1097 m
2024/05/27 15:50 EKOD 271550Z 21007KT 170V240 9999 FEW036 20/10 Q1016
EKBI - Billund Airport, Denmark
Distance from station: SW 134km
Updated: 27/05/2024 23:50
Partly cloudy
Partly cloudy
 Wind from calm
Wind: Calm
Temperature: 10°C
Dew Point: 9°C
Humidity: 94%
Barometer: 1017 hPa
Clouds: Partly cloudy
Visibility: 10 km
Cloud details: Partly cloudy 6096 m
2024/05/27 21:50 EKBI 272150Z AUTO 00000KT 9999 SCT200/// 10/09 Q1017
EKCH - Copenhagen/Kastr, Denmark
Distance from station: SE 148km
Updated: 27/05/2024 23:50
Clear
Clear
 Wind from SSE
Wind: SSE 4 km/h
Temperature: 14°C
Dew Point: 13°C
Humidity: 94%
Barometer: 1017 hPa
Clouds: Clear
Visibility: 10 km
2024/05/27 21:50 EKCH 272150Z AUTO 16002KT 9999 NCD 14/13 Q1017 NOSIG